createdAt,value
2022-12-18T00:01:19.720Z,37.47
2022-12-18T00:06:24.513Z,40.50
2022-12-18T00:11:30.443Z,36.83
2022-12-18T00:16:37.873Z,37.63
2022-12-18T00:21:41.685Z,36.13
2022-12-18T00:26:45.684Z,34.20
2022-12-18T00:31:50.938Z,34.03
2022-12-18T00:36:54.711Z,33.92
2022-12-18T00:42:16.545Z,30.85
2022-12-18T00:47:21.563Z,33.78
2022-12-18T00:52:25.413Z,34.15
2022-12-18T00:57:29.798Z,31.87
2022-12-18T01:02:35.116Z,31.98
2022-12-18T01:07:39.637Z,33.60
2022-12-18T01:12:43.829Z,34.00
2022-12-18T01:17:49.188Z,34.42
2022-12-18T01:22:52.909Z,34.20
2022-12-18T01:27:56.759Z,32.13
2022-12-18T01:33:03.309Z,34.47
2022-12-18T01:38:07.906Z,31.90
2022-12-18T01:43:11.584Z,30.77
2022-12-18T01:48:16.948Z,30.80
2022-12-18T01:53:24.410Z,29.70
2022-12-18T01:58:41.587Z,29.37
2022-12-18T02:03:47.414Z,28.65
2022-12-18T02:09:04.692Z,29.55
2022-12-18T02:14:20.091Z,28.08
2022-12-18T02:19:50.321Z,26.92
2022-12-18T02:25:06.914Z,26.05
2022-12-18T02:30:12.867Z,18.98
2022-12-18T02:35:22.770Z,25.75
2022-12-18T02:40:30.368Z,26.90
2022-12-18T02:45:37.027Z,18.48
2022-12-18T02:50:54.202Z,25.33
2022-12-18T02:56:07.312Z,25.00
2022-12-18T03:01:20.896Z,22.55
2022-12-18T03:06:30.056Z,24.30
2022-12-18T03:11:56.183Z,23.60
2022-12-18T03:17:04.749Z,21.83
2022-12-18T03:22:09.915Z,23.15
2022-12-18T03:27:21.869Z,22.02
2022-12-18T03:32:31.526Z,23.27
2022-12-18T03:37:36.296Z,23.17
2022-12-18T03:42:47.753Z,21.65
2022-12-18T03:48:02.084Z,21.92
2022-12-18T03:53:18.915Z,23.25
2022-12-18T03:58:27.828Z,16.30
2022-12-18T04:03:36.499Z,21.98
2022-12-18T04:08:41.561Z,21.65
2022-12-18T04:13:46.596Z,19.70
2022-12-18T04:18:52.469Z,19.12
2022-12-18T04:23:56.782Z,20.40
2022-12-18T04:29:00.589Z,21.42
2022-12-18T04:34:06.449Z,19.30
2022-12-18T04:44:16.207Z,17.40
2022-12-18T04:49:21.793Z,17.65
2022-12-18T04:54:25.519Z,17.62
2022-12-18T04:59:29.415Z,18.40
2022-12-18T05:04:34.716Z,18.23
2022-12-18T05:09:38.716Z,18.98
2022-12-18T05:14:42.387Z,18.98
2022-12-18T05:19:47.425Z,18.30
2022-12-18T05:24:51.106Z,18.90
2022-12-18T05:29:54.804Z,17.15
2022-12-18T05:34:59.872Z,17.50
2022-12-18T05:40:04.451Z,18.55
2022-12-18T05:45:09.135Z,15.73
2022-12-18T05:50:14.160Z,16.52
2022-12-18T05:55:18.129Z,17.87
2022-12-18T06:00:21.927Z,16.80
2022-12-18T06:05:27.141Z,16.92
2022-12-18T06:10:30.935Z,18.08
2022-12-18T06:15:37.868Z,16.60
2022-12-18T06:20:43.143Z,18.52
2022-12-18T06:25:46.803Z,17.37
2022-12-18T06:30:51.379Z,17.70
2022-12-18T06:36:00.997Z,18.48
2022-12-18T06:41:08.838Z,16.80
2022-12-18T06:51:20.359Z,16.52
2022-12-18T06:56:24.093Z,19.17
2022-12-18T07:01:27.943Z,17.05
2022-12-18T07:06:33.287Z,16.08
2022-12-18T07:11:37.019Z,15.60
2022-12-18T07:16:41.723Z,19.48
2022-12-18T07:21:46.825Z,15.75
2022-12-18T07:26:50.896Z,16.75
2022-12-18T07:31:54.647Z,17.48
2022-12-18T07:36:59.996Z,13.55
2022-12-18T07:42:21.252Z,17.30
2022-12-18T07:47:26.184Z,17.20
2022-12-18T07:52:32.245Z,17.20
2022-12-18T07:57:56.393Z,17.40
2022-12-18T08:03:00.700Z,14.07
2022-12-18T08:08:05.919Z,16.10
2022-12-18T08:13:09.592Z,16.85
2022-12-18T08:18:14.565Z,17.08
2022-12-18T08:23:19.955Z,17.17
2022-12-18T08:28:23.777Z,16.73
2022-12-18T08:33:28.311Z,17.42
2022-12-18T08:38:33.961Z,16.73
2022-12-18T08:43:57.827Z,16.85
2022-12-18T08:49:01.780Z,17.27
2022-12-18T08:54:08.413Z,16.00
2022-12-18T08:59:17.563Z,16.17
2022-12-18T09:04:23.808Z,16.77
2022-12-18T09:09:28.967Z,15.60
2022-12-18T09:14:32.648Z,17.00
2022-12-18T09:19:36.382Z,16.25
2022-12-18T09:24:41.566Z,17.10
2022-12-18T09:29:45.375Z,15.32
2022-12-18T09:34:49.159Z,15.93
2022-12-18T09:39:54.272Z,15.82
2022-12-18T09:44:58.290Z,16.98
2022-12-18T09:50:06.223Z,17.77
2022-12-18T09:55:26.525Z,16.67
2022-12-18T10:00:30.411Z,16.70
2022-12-18T10:05:40.313Z,16.17
2022-12-18T10:10:50.761Z,16.17
2022-12-18T10:16:05.070Z,17.92
2022-12-18T10:21:15.029Z,15.80
2022-12-18T10:26:20.090Z,17.05
2022-12-18T10:31:26.561Z,17.00
2022-12-18T10:36:30.963Z,18.33
2022-12-18T10:41:36.049Z,17.25
2022-12-18T10:46:40.120Z,17.20
2022-12-18T10:51:44.221Z,19.33
2022-12-18T10:56:49.537Z,17.37
2022-12-18T11:01:56.022Z,16.30
2022-12-18T11:07:02.454Z,17.85
2022-12-18T11:12:18.639Z,16.85
2022-12-18T11:17:26.502Z,17.67
2022-12-18T11:22:32.773Z,15.70
2022-12-18T11:27:37.993Z,17.58
2022-12-18T11:32:45.359Z,17.90
2022-12-18T11:37:52.608Z,18.70
2022-12-18T11:43:06.517Z,18.08
2022-12-18T11:48:18.921Z,17.95
2022-12-18T11:53:23.143Z,17.92
2022-12-18T11:58:43.799Z,17.67
2022-12-18T12:04:07.747Z,17.48
2022-12-18T12:09:22.292Z,17.08
2022-12-18T12:14:43.990Z,18.00
2022-12-18T12:19:55.490Z,17.27
2022-12-18T12:25:09.951Z,17.65
2022-12-18T12:30:22.141Z,18.48
2022-12-18T12:35:37.278Z,18.52
2022-12-18T12:40:53.932Z,18.27
2022-12-18T12:46:07.737Z,16.98
2022-12-18T12:51:17.693Z,19.33
2022-12-18T12:56:23.427Z,20.42
2022-12-18T13:01:36.313Z,18.98
2022-12-18T13:06:48.007Z,17.83
2022-12-18T13:12:09.633Z,19.52
2022-12-18T13:17:36.490Z,18.65
2022-12-18T13:22:42.880Z,19.15
2022-12-18T13:28:06.614Z,17.08
2022-12-18T13:33:56.371Z,18.23
2022-12-18T13:39:28.901Z,23.33
2022-12-18T13:44:41.592Z,21.65
2022-12-18T13:49:48.821Z,20.02
2022-12-18T13:54:54.516Z,19.95
2022-12-18T14:00:00.287Z,19.17
2022-12-18T14:05:06.658Z,19.42
2022-12-18T14:15:43.770Z,20.35
2022-12-18T14:20:53.177Z,22.10
2022-12-18T14:26:00.773Z,18.35
2022-12-18T14:31:20.367Z,20.83
2022-12-18T14:36:27.143Z,19.87
2022-12-18T14:41:30.939Z,20.83
2022-12-18T14:46:37.042Z,20.60
2022-12-18T14:51:50.423Z,18.95
2022-12-18T14:57:00.905Z,19.67
2022-12-18T15:02:14.532Z,20.35
2022-12-18T15:07:21.854Z,20.55
2022-12-18T15:12:35.241Z,19.57
2022-12-18T15:17:39.232Z,20.73
2022-12-18T15:22:44.361Z,20.62
2022-12-18T15:27:49.197Z,20.75
2022-12-18T15:32:55.518Z,21.55
2022-12-18T15:38:00.612Z,21.50
2022-12-18T15:43:24.657Z,19.85
2022-12-18T15:48:28.500Z,22.42
2022-12-18T15:53:35.560Z,20.05
2022-12-18T15:58:39.282Z,20.17
2022-12-18T16:03:43.326Z,16.42
2022-12-18T16:08:48.887Z,19.42
2022-12-18T16:13:52.575Z,19.90
2022-12-18T16:18:56.292Z,18.17
2022-12-18T16:24:01.346Z,21.00
2022-12-18T16:29:05.061Z,19.80
2022-12-18T16:34:12.491Z,20.62
2022-12-18T16:39:17.821Z,15.68
2022-12-18T16:44:22.490Z,21.08
2022-12-18T16:49:26.182Z,20.88
2022-12-18T16:54:31.462Z,22.77
2022-12-18T16:59:35.435Z,20.75
2022-12-18T17:04:39.899Z,19.55
2022-12-18T17:09:45.091Z,20.25
2022-12-18T17:14:49.120Z,20.30
2022-12-18T17:19:53.342Z,19.12
2022-12-18T17:24:58.719Z,20.17
2022-12-18T17:30:02.436Z,20.55
2022-12-18T17:35:07.461Z,20.92
2022-12-18T17:40:13.505Z,19.90
2022-12-18T17:45:17.311Z,20.30
2022-12-18T17:50:21.185Z,20.05
2022-12-18T17:55:26.560Z,24.23
2022-12-18T18:00:30.572Z,22.15
2022-12-18T18:05:34.375Z,19.95
2022-12-18T18:10:40.490Z,20.48
2022-12-18T18:15:44.280Z,22.05
2022-12-18T18:20:48.028Z,23.58
2022-12-18T18:25:53.265Z,22.05
2022-12-18T18:30:57.567Z,21.17
2022-12-18T18:36:01.548Z,21.62
2022-12-18T18:41:07.511Z,22.37
2022-12-18T18:46:13.864Z,22.13
2022-12-18T18:51:21.734Z,23.02
2022-12-18T18:56:56.437Z,19.05
2022-12-18T19:01:52.728Z,21.15
2022-12-18T19:06:56.785Z,23.05
2022-12-18T19:12:19.902Z,21.02
2022-12-18T19:17:28.066Z,22.42
2022-12-18T19:22:33.583Z,23.90
2022-12-18T19:27:40.255Z,21.70
2022-12-18T19:32:43.984Z,22.52
2022-12-18T19:37:47.747Z,18.23
2022-12-18T19:42:52.876Z,21.80
2022-12-18T19:48:01.094Z,23.27
2022-12-18T19:53:08.531Z,23.55
2022-12-18T19:58:14.992Z,24.08
2022-12-18T20:03:28.719Z,24.42
2022-12-18T20:08:35.739Z,25.20
2022-12-18T20:13:41.068Z,25.50
2022-12-18T20:18:45.411Z,23.30
2022-12-18T20:23:49.442Z,24.30
2022-12-18T20:28:55.344Z,25.83
2022-12-18T20:34:01.598Z,27.27
2022-12-18T20:39:08.974Z,25.12
2022-12-18T20:44:23.539Z,27.98
2022-12-18T20:49:28.585Z,26.35
2022-12-18T20:54:32.358Z,26.60
2022-12-18T20:59:37.411Z,28.15
2022-12-18T21:04:41.077Z,27.45
2022-12-18T21:09:44.895Z,22.60
2022-12-18T21:14:50.109Z,29.33
2022-12-18T21:19:54.466Z,23.70
2022-12-18T21:24:58.802Z,26.92
2022-12-18T21:30:04.202Z,29.20
2022-12-18T21:35:08.780Z,31.42
2022-12-18T21:40:14.551Z,29.17
2022-12-18T21:45:19.752Z,29.58
2022-12-18T21:50:23.470Z,31.90
2022-12-18T21:55:27.334Z,30.02
2022-12-18T22:00:32.403Z,32.03
2022-12-18T22:05:36.137Z,29.45
2022-12-18T22:10:40.023Z,30.85
2022-12-18T22:15:45.228Z,28.92
2022-12-18T22:20:49.085Z,31.05
2022-12-18T22:25:52.762Z,28.30
2022-12-18T22:30:59.302Z,28.83
2022-12-18T22:36:06.604Z,29.53
2022-12-18T22:41:10.581Z,29.33
2022-12-18T22:46:17.142Z,30.48
2022-12-18T22:51:21.249Z,31.92
2022-12-18T22:56:25.394Z,30.45
2022-12-18T23:01:31.875Z,28.40
2022-12-18T23:06:41.073Z,33.27
2022-12-18T23:11:45.023Z,27.33
2022-12-18T23:16:50.790Z,31.85
2022-12-18T23:27:01.970Z,30.15
2022-12-18T23:32:09.955Z,30.55
2022-12-18T23:37:24.959Z,31.75
2022-12-18T23:42:37.480Z,34.25
2022-12-18T23:47:42.543Z,28.25
2022-12-18T23:52:46.290Z,30.60
2022-12-18T23:57:49.986Z,27.75
